createdAt,value
2023-03-06T06:03:09.213Z,500.00
2023-03-06T06:04:10.118Z,500.00
2023-03-06T06:05:12.553Z,500.00
2023-03-06T06:06:10.160Z,500.00
2023-03-06T06:07:10.141Z,500.00
2023-03-06T06:08:10.144Z,500.00
2023-03-06T06:09:11.741Z,400.00
2023-03-06T06:10:10.137Z,400.00
2023-03-06T06:11:09.110Z,400.00
2023-03-06T06:12:10.114Z,400.00
2023-03-06T06:13:10.142Z,400.00
2023-03-06T06:14:10.097Z,400.00
2023-03-06T06:15:10.104Z,400.00
2023-03-06T06:16:10.158Z,400.00
2023-03-06T06:17:10.084Z,400.00
2023-03-06T06:18:10.084Z,400.00
2023-03-06T06:19:10.107Z,400.00
2023-03-06T06:20:10.058Z,400.00
2023-03-06T06:21:10.064Z,400.00
2023-03-06T06:22:10.053Z,400.00
2023-03-06T06:23:09.055Z,400.00
2023-03-06T06:24:10.032Z,400.00
2023-03-06T06:25:10.033Z,400.00
2023-03-06T06:26:09.030Z,400.00
2023-03-06T06:27:09.035Z,400.00
2023-03-06T06:28:10.027Z,400.00
2023-03-06T06:29:10.008Z,400.00
2023-03-06T06:30:09.071Z,400.00
2023-03-06T06:31:10.156Z,400.00
2023-03-06T06:32:10.214Z,400.00
2023-03-06T06:33:10.232Z,400.00
2023-03-06T06:34:10.276Z,400.00
2023-03-06T06:35:10.363Z,400.00
2023-03-06T06:36:10.389Z,400.00
2023-03-06T06:37:10.437Z,400.00
2023-03-06T06:38:10.505Z,418.00
2023-03-06T06:39:10.537Z,472.00
2023-03-06T06:40:10.597Z,500.00
2023-03-06T06:41:38.927Z,508.00
2023-03-06T06:42:29.891Z,508.00
2023-03-06T06:43:10.644Z,508.00
2023-03-06T06:44:10.626Z,502.00
2023-03-06T06:45:10.618Z,487.00
2023-03-06T06:46:44.644Z,486.00
2023-03-06T06:47:22.959Z,493.00
2023-03-06T06:48:10.693Z,508.00
2023-03-06T06:49:09.656Z,483.00
2023-03-06T06:50:10.595Z,472.00
2023-03-06T06:51:10.616Z,466.00
2023-03-06T06:52:09.578Z,468.00
2023-03-06T06:53:10.571Z,504.00
2023-03-06T06:54:10.543Z,500.00
2023-03-06T06:55:10.538Z,501.00
2023-03-06T06:56:10.528Z,501.00
2023-03-06T06:57:10.540Z,505.00
2023-03-06T06:58:09.526Z,506.00
2023-03-06T06:59:16.576Z,511.00
2023-03-06T07:00:10.507Z,511.00
2023-03-06T07:01:10.525Z,502.00
2023-03-06T07:02:10.510Z,497.00
2023-03-06T07:03:09.495Z,499.00
2023-03-06T07:04:10.590Z,502.00
2023-03-06T07:05:10.480Z,501.00
2023-03-06T07:06:10.473Z,500.00
2023-03-06T07:07:09.479Z,500.00
2023-03-06T07:08:10.466Z,510.00
2023-03-06T07:09:09.456Z,501.00
2023-03-06T07:10:09.455Z,510.00
2023-03-06T07:11:10.441Z,509.00
2023-03-06T07:12:10.441Z,504.00
2023-03-06T07:13:10.437Z,503.00
2023-03-06T07:14:10.447Z,507.00
2023-03-06T07:15:10.428Z,510.00
2023-03-06T07:16:10.454Z,510.00
2023-03-06T07:17:10.393Z,512.00
2023-03-06T07:18:09.421Z,516.00
2023-03-06T07:19:10.380Z,507.00
2023-03-06T07:20:10.402Z,523.00
2023-03-06T07:21:10.401Z,530.00
2023-03-06T07:22:10.378Z,531.00
2023-03-06T07:23:09.393Z,525.00
2023-03-06T07:24:10.341Z,538.00
2023-03-06T07:25:09.344Z,528.00
2023-03-06T07:26:10.327Z,539.00
2023-03-06T07:27:10.348Z,549.00
2023-03-06T07:28:10.397Z,568.00
2023-03-06T07:29:09.316Z,589.00
2023-03-06T07:30:10.323Z,584.00
2023-03-06T07:31:10.342Z,582.00
2023-03-06T07:32:10.315Z,580.00
2023-03-06T07:33:10.313Z,584.00
2023-03-06T07:34:10.274Z,582.00
2023-03-06T07:35:19.644Z,581.00
2023-03-06T07:36:12.729Z,581.00
2023-03-06T07:37:10.260Z,581.00
2023-03-06T07:38:10.330Z,582.00
2023-03-06T07:39:10.303Z,584.00
2023-03-06T07:40:10.235Z,591.00
2023-03-06T07:42:10.237Z,599.00
2023-03-06T07:43:19.112Z,592.00
2023-03-06T07:44:10.214Z,593.00
2023-03-06T07:45:10.235Z,594.00
2023-03-06T07:46:10.261Z,595.00
2023-03-06T07:47:10.202Z,597.00
2023-03-06T07:48:10.187Z,601.00
2023-03-06T07:49:10.179Z,593.00
2023-03-06T07:50:09.179Z,590.00
2023-03-06T07:51:10.168Z,610.00
2023-03-06T07:57:10.135Z,602.00
2023-03-06T07:58:09.374Z,613.00
2023-03-06T08:03:09.160Z,611.00
2023-03-06T08:07:10.045Z,617.00
2023-03-06T08:08:10.055Z,620.00
2023-03-06T08:10:10.024Z,622.00
2023-03-06T08:11:10.058Z,634.00
2023-03-06T08:12:10.009Z,633.00
2023-03-06T08:14:09.990Z,626.00
2023-03-06T08:21:09.078Z,629.00
2023-03-06T08:22:10.101Z,626.00
2023-03-06T08:25:09.199Z,621.00
2023-03-06T08:29:10.273Z,622.00
2023-03-06T08:32:10.345Z,619.00
2023-03-06T08:33:10.370Z,646.00
2023-03-06T08:38:09.477Z,633.00
2023-03-06T08:39:09.505Z,643.00
2023-03-06T08:49:09.692Z,655.00
2023-03-06T08:55:09.955Z,627.00
2023-03-06T09:02:10.420Z,613.00
2023-03-06T09:41:12.384Z,589.00
2023-03-06T09:42:12.386Z,585.00
2023-03-06T09:45:12.371Z,585.00
2023-03-06T10:42:11.452Z,553.00
2023-03-06T11:59:12.582Z,524.00
2023-03-06T12:10:11.568Z,516.00
2023-03-06T12:17:12.545Z,512.00
2023-03-06T12:29:12.521Z,509.00
2023-03-06T12:36:11.481Z,507.00
2023-03-06T12:41:12.476Z,503.00
2023-03-06T12:42:22.624Z,500.00
2023-03-06T12:46:12.532Z,502.00
2023-03-06T12:49:17.801Z,500.00
2023-03-06T12:56:12.397Z,505.00
2023-03-06T13:00:12.369Z,504.00
2023-03-06T13:08:12.317Z,511.00
2023-03-06T13:09:12.339Z,508.00
2023-03-06T13:12:12.287Z,506.00
2023-03-06T13:14:12.258Z,509.00
2023-03-06T14:11:11.873Z,526.00
2023-03-06T14:14:11.854Z,517.00
2023-03-06T14:16:11.975Z,526.00
2023-03-06T14:19:11.949Z,524.00
2023-03-06T14:22:11.815Z,532.00
2023-03-06T14:23:11.801Z,528.00
2023-03-06T14:26:11.798Z,525.00
2023-03-06T14:34:10.753Z,525.00
2023-03-06T14:47:11.769Z,512.00
2023-03-06T14:57:12.051Z,510.00
2023-03-06T14:59:11.117Z,521.00
2023-03-06T15:03:11.250Z,513.00
2023-03-06T15:04:12.244Z,529.00
2023-03-06T15:05:12.313Z,523.00
2023-03-06T15:09:12.420Z,517.00
2023-03-06T15:11:12.480Z,531.00
2023-03-06T15:13:12.535Z,517.00
2023-03-06T15:19:11.782Z,512.00
2023-03-06T15:22:12.925Z,550.00
2023-03-06T15:26:12.183Z,578.00
2023-03-06T15:27:12.233Z,2993.00
2023-03-06T15:28:13.279Z,3581.00
2023-03-06T15:30:13.406Z,4147.00
2023-03-06T15:44:13.885Z,4053.00
2023-03-06T15:45:13.906Z,4023.00
2023-03-06T15:49:14.020Z,3781.00
2023-03-06T16:28:15.374Z,2716.00
2023-03-06T16:29:15.383Z,2700.00
